Time;durP1;ratioP1;P1;durP2;ratioP2;P2;SDS_P1;SDS_P2;PMS_P1;PMS_P2;Temp;Humidity;BMP_temperature;BMP_pressure;BME280_temperature;BME280_humidity;BME280_pressure;Samples;Min_cycle;Max_cycle;Signal;HPM_P1;HPM_P2
2022/06/29 00:00:51;;;;;;;;;4.00;2.25;;;;;23.19;41.06;101239.44;5071750;28;45421;-62
2022/06/29 00:03:16;;;;;;;;;1.75;1.75;;;;;23.12;41.51;101242.78;5066957;28;45496;-62
2022/06/29 00:05:44;;;;;;;;;1.00;1.00;;;;;23.08;41.66;101246.81;5059136;28;45311;-62
2022/06/29 00:08:09;;;;;;;;;3.25;2.00;;;;;23.06;41.63;101256.00;5058580;28;45254;-62
2022/06/29 00:10:37;;;;;;;;;2.00;2.00;;;;;23.03;41.53;101242.91;5059816;28;45995;-62
2022/06/29 00:13:03;;;;;;;;;4.75;2.00;;;;;23.03;42.15;101245.59;5058015;28;45466;-63
2022/06/29 00:15:30;;;;;;;;;2.00;2.00;;;;;22.99;42.13;101242.41;5059488;28;45311;-62
2022/06/29 00:17:56;;;;;;;;;2.75;1.50;;;;;22.99;42.51;101239.69;5056222;28;45548;-62
2022/06/29 00:20:22;;;;;;;;;2.50;1.50;;;;;22.98;42.44;101239.84;5058332;28;45472;-62
2022/06/29 00:22:49;;;;;;;;;4.25;2.00;;;;;22.94;42.64;101242.00;5058753;28;45342;-63
2022/06/29 00:25:16;;;;;;;;;2.50;2.50;;;;;22.92;42.72;101244.03;5059658;28;45496;-62
2022/06/29 00:27:43;;;;;;;;;1.50;1.50;;;;;22.88;42.68;101248.00;5053091;28;45495;-62
2022/06/29 00:30:10;;;;;;;;;2.75;1.75;;;;;22.84;43.03;101242.09;5058320;28;45558;-62
2022/06/29 00:32:37;;;;;;;;;4.00;2.00;;;;;22.80;43.29;101239.88;5059697;28;45394;-62
2022/06/29 00:35:04;;;;;;;;;3.00;3.00;;;;;22.77;43.23;101241.03;5059468;28;45299;-62
2022/06/29 00:37:31;;;;;;;;;2.50;2.50;;;;;22.73;43.15;101231.59;5058797;28;45470;-62
2022/06/29 00:39:57;;;;;;;;;3.00;1.00;;;;;22.69;43.33;101232.09;5059552;28;46196;-62
2022/06/29 00:42:23;;;;;;;;;1.75;1.00;;;;;22.65;43.67;101231.53;5057146;28;45430;-62
2022/06/29 00:44:50;;;;;;;;;1.50;1.00;;;;;22.58;43.79;101228.63;5058491;28;45856;-62
2022/06/29 00:47:16;;;;;;;;;5.00;2.00;;;;;22.54;43.50;101229.13;5056409;28;45297;-62
2022/06/29 00:49:42;;;;;;;;;1.00;1.00;;;;;22.53;43.44;101222.91;5041405;28;47931;-62
2022/06/29 00:52:14;;;;;;;;;3.00;1.00;;;;;22.52;43.97;101226.59;5057329;28;45186;-62
2022/06/29 00:55:10;;;;;;;;;3.50;1.00;;;;;22.48;43.76;101221.69;5057998;28;45302;-63
2022/06/29 00:57:41;;;;;;;;;0.50;0.50;;;;;22.47;43.81;101228.06;5054436;28;45417;-63
2022/06/29 01:00:08;;;;;;;;;1.00;1.00;;;;;22.42;43.90;101222.31;5054302;28;45827;-62
2022/06/29 01:02:34;;;;;;;;;2.00;2.00;;;;;22.39;44.23;101214.59;5058827;28;45453;-62
2022/06/29 01:05:03;;;;;;;;;2.00;2.00;;;;;22.37;44.33;101225.47;5068388;28;45462;-62
2022/06/29 01:07:31;;;;;;;;;2.00;2.00;;;;;22.33;44.21;101213.34;5067318;28;45554;-62
2022/06/29 01:10:00;;;;;;;;;2.00;1.25;;;;;22.29;44.64;101217.38;5068514;28;45640;-62
2022/06/29 01:12:27;;;;;;;;;2.00;2.00;;;;;22.27;44.40;101222.03;5066102;28;45570;-62
2022/06/29 01:14:53;;;;;;;;;3.50;3.50;;;;;22.24;44.41;101215.13;5069523;28;45302;-62
2022/06/29 01:17:21;;;;;;;;;2.50;2.00;;;;;22.21;44.08;101212.78;5069889;28;45188;-62
2022/06/29 01:19:47;;;;;;;;;2.75;0.75;;;;;22.19;44.74;101217.44;5068412;27;45363;-63
2022/06/29 01:22:18;;;;;;;;;1.50;1.50;;;;;22.18;44.50;101217.59;5068419;28;45530;-62
2022/06/29 01:24:45;;;;;;;;;0.75;0.75;;;;;22.17;44.90;101216.75;5070694;28;45242;-62
2022/06/29 01:27:12;;;;;;;;;1.00;1.00;;;;;22.16;44.73;101223.13;5070541;28;45236;-62
2022/06/29 01:29:39;;;;;;;;;1.75;1.75;;;;;22.16;44.91;101214.22;5069041;28;45334;-62
2022/06/29 01:32:07;;;;;;;;;1.50;1.50;;;;;22.15;44.84;101207.16;5065434;28;45374;-62
2022/06/29 01:34:34;;;;;;;;;0.75;0.75;;;;;22.13;45.29;101209.19;5069711;28;45232;-62
2022/06/29 01:37:01;;;;;;;;;1.75;1.75;;;;;22.09;45.03;101214.00;5071235;28;45445;-62
2022/06/29 01:39:29;;;;;;;;;1.50;1.00;;;;;22.08;45.03;101209.63;5066308;28;45426;-62
2022/06/29 01:41:56;;;;;;;;;2.75;2.75;;;;;22.07;45.25;101220.47;5068177;28;45523;-62
2022/06/29 01:44:22;;;;;;;;;1.00;1.00;;;;;22.04;45.18;101216.28;5068223;28;45403;-62
2022/06/29 01:46:48;;;;;;;;;1.00;1.00;;;;;22.02;45.67;101220.94;5071397;28;45268;-62
2022/06/29 01:49:14;;;;;;;;;1.25;1.00;;;;;21.97;45.23;101212.53;5065067;28;45350;-62
2022/06/29 01:51:41;;;;;;;;;1.50;0.25;;;;;21.94;45.34;101213.66;5068428;28;45145;-62
2022/06/29 01:54:08;;;;;;;;;1.75;1.75;;;;;21.93;45.53;101209.28;5065085;28;45593;-62
2022/06/29 01:56:34;;;;;;;;;5.25;2.25;;;;;21.93;45.48;101211.13;5067382;28;45350;-62
2022/06/29 01:59:00;;;;;;;;;2.75;1.75;;;;;21.91;45.44;101213.97;5069500;28;45345;-62
2022/06/29 02:01:27;;;;;;;;;2.25;2.00;;;;;21.90;45.59;101208.75;5066232;28;45504;-62
2022/06/29 02:03:53;;;;;;;;;4.25;0.75;;;;;21.87;45.74;101214.41;5068276;28;45365;-62
2022/06/29 02:06:20;;;;;;;;;1.00;1.00;;;;;21.84;45.60;101214.72;5066458;27;45285;-62
2022/06/29 02:08:47;;;;;;;;;2.00;1.50;;;;;21.79;45.66;101211.66;5064532;28;46410;-62
2022/06/29 02:11:13;;;;;;;;;2.50;1.00;;;;;21.76;45.58;101222.69;5068193;28;45609;-62
2022/06/29 02:13:39;;;;;;;;;3.25;2.00;;;;;21.70;45.69;101218.78;5072516;28;45402;-62
2022/06/29 02:16:05;;;;;;;;;1.00;1.00;;;;;21.68;45.87;101224.28;5072450;28;45664;-62
2022/06/29 02:18:31;;;;;;;;;3.00;1.00;;;;;21.62;45.72;101210.63;5072637;28;45410;-62
2022/06/29 02:20:58;;;;;;;;;1.50;0.75;;;;;21.59;45.78;101216.31;5070131;27;45299;-62
2022/06/29 02:23:24;;;;;;;;;2.25;0.75;;;;;21.54;45.80;101214.06;5071519;28;45333;-63
2022/06/29 02:25:50;;;;;;;;;1.00;1.00;;;;;21.52;45.69;101209.88;5073690;28;45397;-62
2022/06/29 02:28:16;;;;;;;;;1.00;1.00;;;;;21.48;45.84;101211.16;5073342;28;45233;-62
2022/06/29 02:36:11;;;;;;;;;1.00;0.75;;;;;21.37;45.80;101210.38;5069790;28;45385;-62
2022/06/29 02:38:37;;;;;;;;;2.50;2.50;;;;;21.33;45.90;101219.72;5073563;28;45303;-62
2022/06/29 02:41:04;;;;;;;;;1.75;1.00;;;;;21.30;45.93;101205.75;5071766;28;45623;-62
2022/06/29 02:43:31;;;;;;;;;1.75;0.50;;;;;21.29;46.16;101207.59;5070970;28;45277;-62
2022/06/29 02:45:57;;;;;;;;;2.25;1.00;;;;;21.27;45.91;101206.03;5073926;28;45480;-62
2022/06/29 02:48:23;;;;;;;;;1.00;1.00;;;;;21.24;46.05;101199.09;5071357;28;46247;-62
2022/06/29 02:50:49;;;;;;;;;1.00;1.00;;;;;21.24;45.88;101201.78;5072342;27;45314;-62
2022/06/29 02:53:16;;;;;;;;;1.75;0.75;;;;;21.23;46.36;101197.44;5070470;28;45351;-62
2022/06/29 02:55:42;;;;;;;;;2.00;0.75;;;;;21.20;46.11;101189.69;5070988;28;45537;-62
2022/06/29 02:58:08;;;;;;;;;1.50;1.50;;;;;21.19;45.90;101198.72;5071005;28;45500;-62
2022/06/29 03:00:34;;;;;;;;;3.25;1.00;;;;;21.16;46.53;101196.31;5071637;28;45488;-62
2022/06/29 03:02:59;;;;;;;;;0.75;0.75;;;;;21.09;46.60;101190.75;5071510;28;45450;-62
2022/06/29 03:05:25;;;;;;;;;1.00;1.00;;;;;21.03;46.74;101194.00;5071611;28;45544;-62
2022/06/29 03:07:52;;;;;;;;;2.00;2.00;;;;;21.04;46.39;101194.84;5070574;28;45467;-62
2022/06/29 03:10:18;;;;;;;;;2.75;2.00;;;;;21.04;46.45;101192.16;5072500;28;45157;-62
2022/06/29 03:12:44;;;;;;;;;2.50;2.50;;;;;21.04;46.71;101195.69;5071898;28;45272;-62
2022/06/29 03:15:10;;;;;;;;;5.25;2.00;;;;;21.02;46.86;101200.34;5072856;28;45313;-62
2022/06/29 03:17:36;;;;;;;;;4.00;2.00;;;;;21.00;46.73;101204.16;5070182;28;45337;-62
2022/06/29 03:20:04;;;;;;;;;3.50;2.00;;;;;20.92;46.87;101199.53;5070000;28;45596;-63
2022/06/29 03:22:31;;;;;;;;;2.00;1.50;;;;;20.87;46.59;101196.47;5069818;28;45459;-62
2022/06/29 03:24:57;;;;;;;;;3.25;1.50;;;;;20.85;47.07;101204.66;5072615;28;45389;-62
2022/06/29 03:27:23;;;;;;;;;1.50;1.50;;;;;20.86;46.95;101200.97;5069916;28;45952;-62
2022/06/29 03:29:48;;;;;;;;;2.00;1.00;;;;;20.84;46.62;101196.75;5068359;27;45307;-62
2022/06/29 03:32:14;;;;;;;;;3.00;1.50;;;;;20.85;46.89;101190.41;5072827;28;45234;-62
2022/06/29 03:34:40;;;;;;;;;2.00;1.50;;;;;20.83;46.94;101190.53;5072810;28;45351;-62
2022/06/29 03:37:06;;;;;;;;;2.25;2.25;;;;;20.80;46.81;101188.16;5071978;28;46044;-62
2022/06/29 03:39:32;;;;;;;;;5.50;2.50;;;;;20.74;46.71;101186.06;5072073;28;45334;-62
2022/06/29 03:41:58;;;;;;;;;3.00;1.75;;;;;20.74;47.14;101180.72;5069964;28;45497;-62
2022/06/29 03:44:24;;;;;;;;;4.00;3.00;;;;;20.73;47.10;101183.53;5070032;28;45639;-62
2022/06/29 03:46:50;;;;;;;;;2.25;1.75;;;;;20.73;47.18;101187.06;5071173;28;45478;-62
2022/06/29 03:49:16;;;;;;;;;3.50;2.25;;;;;20.66;47.27;101177.09;5071948;27;45458;-62
2022/06/29 03:51:42;;;;;;;;;4.00;1.50;;;;;20.61;47.29;101181.03;5070503;28;45517;-62
2022/06/29 03:54:07;;;;;;;;;3.00;2.50;;;;;20.59;47.58;101176.81;5070748;28;45701;-62
2022/06/29 03:56:33;;;;;;;;;4.00;2.00;;;;;20.58;47.33;101186.69;5069228;28;45412;-63
2022/06/29 03:58:59;;;;;;;;;3.25;2.50;;;;;20.57;47.40;101181.47;5071952;28;45321;-62
2022/06/29 04:01:25;;;;;;;;;2.50;2.50;;;;;20.58;47.58;101172.44;5070879;28;45222;-62
2022/06/29 04:03:51;;;;;;;;;8.25;3.50;;;;;20.58;47.25;101183.16;5069838;27;45237;-62
2022/06/29 04:06:18;;;;;;;;;0.00;0.00;;;;;20.56;47.69;101179.78;5068023;27;46461;-62
2022/06/29 04:08:44;;;;;;;;;3.75;2.50;;;;;20.52;47.26;101186.41;5068394;28;45363;-62
2022/06/29 04:13:55;;;;;;;;;10.25;6.50;;;;;20.49;47.81;101181.34;5069377;28;45380;-62
2022/06/29 04:16:21;;;;;;;;;8.25;6.75;;;;;20.50;47.45;101177.69;5071166;28;45446;-62
2022/06/29 04:18:48;;;;;;;;;18.50;8.75;;;;;20.52;47.97;101181.91;5069580;28;45390;-62
2022/06/29 04:21:14;;;;;;;;;6.50;5.00;;;;;20.55;47.98;101183.47;5068232;28;45295;-62
2022/06/29 04:23:41;;;;;;;;;6.25;6.00;;;;;20.60;47.64;101186.53;5070674;28;45320;-62
2022/06/29 04:26:07;;;;;;;;;7.00;4.75;;;;;20.63;47.95;101187.09;5072778;28;45192;-62
2022/06/29 04:28:33;;;;;;;;;10.00;5.25;;;;;20.68;48.14;101183.97;5070097;28;45330;-62
2022/06/29 04:31:00;;;;;;;;;6.75;5.00;;;;;20.72;48.14;101181.88;5069534;28;45300;-62
2022/06/29 04:33:27;;;;;;;;;4.50;4.50;;;;;20.75;48.05;101185.06;5069404;28;45500;-62
2022/06/29 04:35:53;;;;;;;;;6.75;4.25;;;;;20.79;48.14;101189.16;5070187;28;45858;-62
2022/06/29 04:38:19;;;;;;;;;6.75;5.50;;;;;20.77;48.29;101180.41;5071613;28;45436;-62
2022/06/29 04:40:45;;;;;;;;;9.25;4.50;;;;;20.79;48.07;101180.28;5069739;28;45476;-62
2022/06/29 04:43:14;;;;;;;;;5.00;4.00;;;;;20.79;48.29;101181.13;5051156;28;45471;-62
2022/06/29 04:48:26;;;;;;;;;4.25;3.00;;;;;20.84;48.15;101176.16;5069155;28;45354;-62
2022/06/29 04:50:52;;;;;;;;;3.75;3.75;;;;;20.87;48.54;101175.03;5070047;28;45304;-62
2022/06/29 04:53:18;;;;;;;;;6.75;4.00;;;;;20.92;48.46;101173.59;5067924;28;45421;-62
2022/06/29 04:55:44;;;;;;;;;8.50;5.00;;;;;20.95;48.25;101175.16;5071367;28;45928;-62
2022/06/29 04:58:10;;;;;;;;;4.50;2.75;;;;;21.00;48.44;101172.84;5070238;28;45311;-62
2022/06/29 05:00:36;;;;;;;;;7.50;6.25;;;;;21.00;48.47;101174.69;5070442;28;45386;-62
2022/06/29 05:03:02;;;;;;;;;7.00;4.00;;;;;20.94;48.42;101170.78;5068511;28;45326;-62
2022/06/29 05:05:28;;;;;;;;;6.00;5.00;;;;;20.95;48.56;101171.63;5069555;28;45216;-62
2022/06/29 05:07:55;;;;;;;;;6.25;4.50;;;;;20.95;48.71;101169.78;5069198;28;45316;-62
2022/06/29 05:10:21;;;;;;;;;5.75;4.25;;;;;20.94;48.63;101168.13;5071191;28;45480;-62
2022/06/29 05:12:46;;;;;;;;;9.25;4.50;;;;;20.98;48.27;101168.66;5069337;28;45428;-62
2022/06/29 05:15:12;;;;;;;;;6.75;5.50;;;;;20.95;48.70;101175.16;5070329;28;46447;-62
2022/06/29 05:17:39;;;;;;;;;11.25;6.50;;;;;20.90;48.72;101164.88;5067167;28;45452;-62
2022/06/29 05:20:09;;;;;;;;;9.00;6.00;;;;;20.88;48.64;101166.03;5071248;28;45448;-62
2022/06/29 05:22:36;;;;;;;;;7.25;6.75;;;;;20.89;48.59;101167.69;5068698;28;45514;-62
2022/06/29 05:25:03;;;;;;;;;5.25;4.50;;;;;20.89;48.76;101171.22;5069386;28;45597;-62
2022/06/29 05:27:29;;;;;;;;;8.50;4.50;;;;;20.87;48.64;101170.53;5068403;28;45268;-62
2022/06/29 05:29:55;;;;;;;;;5.25;4.50;;;;;20.95;48.71;101172.47;5069273;28;45413;-62
2022/06/29 05:32:23;;;;;;;;;7.50;6.00;;;;;21.06;48.66;101168.75;5071107;27;45565;-62
2022/06/29 05:34:49;;;;;;;;;8.50;5.00;;;;;21.12;48.67;101170.84;5069523;28;46060;-62
2022/06/29 05:37:15;;;;;;;;;4.00;4.00;;;;;21.18;48.83;101181.81;5069163;28;45268;-62
2022/06/29 05:39:42;;;;;;;;;4.75;3.00;;;;;21.25;49.23;101187.44;5069353;28;45516;-62
2022/06/29 05:42:09;;;;;;;;;5.25;2.75;;;;;21.30;49.00;101187.84;5060422;28;45564;-62
2022/06/29 05:44:37;;;;;;;;;3.50;2.75;;;;;21.37;48.90;101180.88;5060185;28;45368;-62
2022/06/29 05:47:03;;;;;;;;;4.00;3.00;;;;;21.42;48.88;101185.81;5074854;28;45439;-62
2022/06/29 05:49:30;;;;;;;;;5.50;4.00;;;;;21.44;49.13;101179.28;5063428;28;45368;-62
2022/06/29 05:51:56;;;;;;;;;5.75;5.00;;;;;21.45;49.00;101178.28;5075410;28;45254;-62
2022/06/29 05:54:24;;;;;;;;;3.25;2.25;;;;;21.50;49.22;101182.38;5062711;28;45419;-62
2022/06/29 05:56:50;;;;;;;;;2.50;2.25;;;;;21.53;49.18;101184.75;5065917;28;45299;-62
2022/06/29 05:59:16;;;;;;;;;3.50;2.50;;;;;21.54;49.12;101173.88;5063401;28;45285;-62
2022/06/29 06:01:42;;;;;;;;;2.50;2.50;;;;;21.60;49.23;101185.81;5063558;28;45307;-64
2022/06/29 06:04:08;;;;;;;;;4.50;3.00;;;;;21.61;48.87;101169.59;5062932;28;45448;-62
2022/06/29 06:06:34;;;;;;;;;4.75;1.75;;;;;21.68;48.90;101167.97;5064260;28;45513;-62
2022/06/29 06:09:00;;;;;;;;;3.25;1.25;;;;;21.76;48.38;101169.91;5060184;27;45544;-61
2022/06/29 06:11:26;;;;;;;;;2.00;1.75;;;;;21.82;48.65;101169.28;5065274;28;45777;-61
2022/06/29 06:13:52;;;;;;;;;2.75;2.50;;;;;21.86;48.55;101173.34;5062452;28;46341;-61
2022/06/29 06:16:18;;;;;;;;;2.25;2.25;;;;;21.90;48.36;101166.69;5058318;28;45177;-61
2022/06/29 06:18:44;;;;;;;;;1.25;1.25;;;;;21.93;48.58;101169.03;5061289;28;45373;-61
2022/06/29 06:21:10;;;;;;;;;1.25;1.25;;;;;21.98;48.37;101174.81;5062978;28;45219;-60
2022/06/29 06:23:38;;;;;;;;;3.00;2.00;;;;;22.04;48.06;101178.72;5062933;28;46160;-63
2022/06/29 06:26:04;;;;;;;;;5.25;3.25;;;;;22.09;48.24;101183.63;5053438;28;45260;-67
2022/06/29 06:28:30;;;;;;;;;2.25;2.25;;;;;22.11;47.90;101182.47;5063063;28;45362;-69
2022/06/29 06:30:56;;;;;;;;;3.00;2.75;;;;;22.13;48.07;101179.66;5062594;28;45318;-64
2022/06/29 06:33:24;;;;;;;;;3.00;2.50;;;;;22.18;47.82;101185.38;5062636;28;45441;-62
2022/06/29 06:35:52;;;;;;;;;2.75;2.75;;;;;22.24;47.94;101188.28;5061968;28;45433;-64
2022/06/29 06:38:18;;;;;;;;;3.25;1.75;;;;;22.28;47.61;101181.63;5063248;28;45397;-64
2022/06/29 06:43:28;;;;;;;;;3.75;0.75;;;;;22.42;47.54;101182.03;5060013;28;45484;-65
2022/06/29 06:45:55;;;;;;;;;3.25;2.00;;;;;22.46;47.40;101183.44;5062637;28;45384;-65
2022/06/29 06:48:20;;;;;;;;;4.00;2.00;;;;;22.51;47.02;101184.66;5061363;28;45417;-64
2022/06/29 06:50:46;;;;;;;;;2.75;2.00;;;;;22.54;46.99;101175.44;5062220;28;45610;-65
2022/06/29 06:53:12;;;;;;;;;4.50;2.00;;;;;22.61;47.17;101181.00;5061837;28;45465;-65
2022/06/29 06:55:38;;;;;;;;;4.25;3.00;;;;;22.66;46.84;101182.19;5062618;28;45247;-67
2022/06/29 06:58:04;;;;;;;;;1.00;1.00;;;;;22.69;46.86;101173.84;5062435;28;45280;-64
2022/06/29 07:00:32;;;;;;;;;5.00;2.00;;;;;22.71;46.81;101162.94;5062251;28;45323;-64
2022/06/29 07:02:57;;;;;;;;;3.75;3.00;;;;;22.74;46.36;101171.50;5049107;28;45590;-64
2022/06/29 07:05:25;;;;;;;;;3.25;2.00;;;;;22.77;46.60;101175.75;5062545;28;45279;-64
2022/06/29 07:07:52;;;;;;;;;1.00;1.00;;;;;22.78;46.50;101172.88;5061595;28;45402;-64
2022/06/29 07:10:20;;;;;;;;;3.75;2.00;;;;;22.83;46.43;101180.47;5062191;28;45261;-64
2022/06/29 07:12:46;;;;;;;;;2.75;2.25;;;;;22.84;46.31;101172.25;5062090;28;45410;-65
2022/06/29 07:15:13;;;;;;;;;1.75;1.75;;;;;22.88;46.11;101174.63;5062698;28;45347;-65
2022/06/29 07:17:42;;;;;;;;;1.00;1.00;;;;;22.89;46.23;101171.78;5060785;28;45414;-64
2022/06/29 07:20:09;;;;;;;;;3.00;1.00;;;;;22.92;45.96;101174.16;5062385;28;45473;-64
2022/06/29 07:22:36;;;;;;;;;6.00;3.00;;;;;22.94;45.83;101171.31;5060646;28;45618;-64
2022/06/29 07:25:02;;;;;;;;;2.00;1.25;;;;;22.97;45.75;101171.81;5062506;28;45248;-64
2022/06/29 07:27:28;;;;;;;;;1.50;1.25;;;;;23.01;45.79;101175.88;5062215;28;45656;-64
2022/06/29 07:29:54;;;;;;;;;0.00;0.00;;;;;23.06;45.60;101168.16;5062318;28;45555;-64
2022/06/29 07:32:21;;;;;;;;;1.75;1.50;;;;;23.08;45.61;101166.19;5061793;28;45478;-65
2022/06/29 07:34:47;;;;;;;;;0.00;0.00;;;;;23.13;45.38;101171.06;5062210;28;45350;-64
2022/06/29 07:37:14;;;;;;;;;2.25;2.25;;;;;23.15;45.37;101170.91;5062388;28;45397;-64
2022/06/29 07:39:40;;;;;;;;;2.75;2.75;;;;;23.19;45.01;101170.41;5044569;28;45276;-64
2022/06/29 07:42:06;;;;;;;;;4.50;2.00;;;;;23.22;45.46;101159.31;5061404;28;45298;-64
2022/06/29 07:44:31;;;;;;;;;7.00;3.00;;;;;23.27;45.12;101169.59;5062172;28;45229;-64
2022/06/29 07:46:57;;;;;;;;;2.00;2.00;;;;;23.33;45.29;101168.94;5062154;28;45223;-64
2022/06/29 07:49:24;;;;;;;;;5.00;3.25;;;;;23.38;44.93;101166.59;5061531;28;45443;-64
2022/06/29 07:51:53;;;;;;;;;4.25;4.25;;;;;23.43;44.66;101158.06;5061300;28;45388;-64
2022/06/29 07:54:19;;;;;;;;;4.75;3.25;;;;;23.50;44.56;101168.00;5060944;28;45260;-65
2022/06/29 07:56:45;;;;;;;;;5.75;3.50;;;;;23.52;44.69;101162.44;5061921;28;45229;-64
2022/06/29 07:59:11;;;;;;;;;4.00;2.50;;;;;23.51;44.43;101161.59;5062021;28;45533;-64
2022/06/29 08:01:37;;;;;;;;;3.25;1.50;;;;;23.53;44.74;101156.06;5061246;28;45253;-64
2022/06/29 08:04:04;;;;;;;;;2.50;2.25;;;;;23.55;44.33;101154.91;5059509;28;45702;-64
2022/06/29 08:06:29;;;;;;;;;2.50;1.50;;;;;23.61;44.60;101161.47;5061618;28;45265;-64
2022/06/29 08:08:55;;;;;;;;;3.00;2.00;;;;;23.66;44.14;101156.44;5061740;28;45433;-64
2022/06/29 08:11:21;;;;;;;;;4.00;2.00;;;;;23.68;44.00;101160.66;5060744;28;45445;-64
2022/06/29 08:13:50;;;;;;;;;2.75;2.00;;;;;23.72;44.14;101157.66;5061379;28;45478;-64
2022/06/29 08:16:17;;;;;;;;;3.25;2.00;;;;;23.76;43.83;101156.28;5061240;28;45324;-64
2022/06/29 08:18:44;;;;;;;;;3.25;2.50;;;;;23.79;43.91;101154.13;5060845;28;45494;-64
2022/06/29 08:21:09;;;;;;;;;5.00;2.00;;;;;23.84;43.88;101148.22;5060690;28;45332;-64
2022/06/29 08:23:35;;;;;;;;;3.50;1.00;;;;;23.84;44.12;101148.22;5060991;28;45511;-64
2022/06/29 08:26:01;;;;;;;;;1.00;1.00;;;;;23.83;43.63;101146.53;5061118;28;45310;-64
2022/06/29 08:28:27;;;;;;;;;7.00;4.00;;;;;23.85;44.07;101139.97;5059690;28;45664;-64
2022/06/29 08:30:54;;;;;;;;;3.00;3.00;;;;;23.90;43.88;101134.94;5060436;28;46085;-64
2022/06/29 08:33:21;;;;;;;;;2.25;2.25;;;;;23.92;43.73;101130.22;5060750;28;45339;-64
2022/06/29 08:35:48;;;;;;;;;3.00;2.00;;;;;24.02;43.52;101134.63;5061240;28;45252;-64
2022/06/29 08:38:16;;;;;;;;;3.00;1.00;;;;;24.02;43.98;101132.78;5061025;28;45387;-64
2022/06/29 08:40:44;;;;;;;;;4.25;2.25;;;;;24.05;43.83;101134.28;5060502;28;46128;-64
2022/06/29 08:43:16;;;;;;;;;2.00;1.50;;;;;24.02;43.42;101135.47;5060839;28;45168;-65
2022/06/29 08:45:50;;;;;;;;;0.00;0.00;;;;;24.05;43.87;101139.66;5059977;28;45367;-65
2022/06/29 08:48:17;;;;;;;;;6.00;3.00;;;;;24.12;43.89;101135.28;5060915;28;45508;-65
2022/06/29 08:50:49;;;;;;;;;3.25;1.50;;;;;24.18;43.26;101142.69;5060268;28;46137;-64
2022/06/29 08:53:16;;;;;;;;;3.00;1.00;;;;;24.22;43.22;101141.31;5060265;28;45353;-64
2022/06/29 08:55:45;;;;;;;;;1.25;0.75;;;;;24.30;43.68;101141.31;5059566;28;45367;-64
2022/06/29 08:58:25;;;;;;;;;3.00;1.50;;;;;24.41;43.82;101137.44;5061033;28;45436;-64
2022/06/29 09:00:51;;;;;;;;;2.50;0.50;;;;;24.46;43.58;101141.31;5059187;28;45530;-63
2022/06/29 09:03:23;;;;;;;;;3.50;1.00;;;;;24.48;43.08;101130.38;5059834;28;45314;-64
2022/06/29 09:05:57;;;;;;;;;1.00;1.00;;;;;24.49;42.58;101138.31;5060822;28;45469;-63
2022/06/29 09:08:23;;;;;;;;;1.25;1.25;;;;;24.52;42.86;101137.09;5064829;28;45535;-63
2022/06/29 09:10:50;;;;;;;;;4.00;2.00;;;;;24.63;42.78;101146.66;5059045;28;46737;-64
2022/06/29 09:13:23;;;;;;;;;1.00;1.00;;;;;24.71;42.78;101142.09;5060201;28;45279;-63
2022/06/29 09:15:58;;;;;;;;;1.00;0.00;;;;;24.75;42.30;101138.03;5060948;28;45328;-64
2022/06/29 09:18:33;;;;;;;;;1.50;1.25;;;;;24.79;42.68;101146.59;5060334;28;45478;-63
2022/06/29 09:21:00;;;;;;;;;2.25;1.00;;;;;24.82;42.06;101148.13;5061285;28;45516;-64
2022/06/29 09:23:27;;;;;;;;;1.00;1.00;;;;;24.84;42.51;101149.63;5063956;28;45423;-64
2022/06/29 09:25:55;;;;;;;;;2.75;2.00;;;;;24.86;41.84;101149.44;5063958;28;45291;-64
2022/06/29 09:28:29;;;;;;;;;3.50;2.50;;;;;24.88;42.44;101152.81;5063788;28;45459;-64
2022/06/29 09:30:56;;;;;;;;;2.00;2.00;;;;;24.90;42.03;101153.50;5063416;28;45488;-64
2022/06/29 09:33:27;;;;;;;;;1.00;1.00;;;;;24.89;42.22;101149.13;5063271;28;45176;-64
2022/06/29 09:36:07;;;;;;;;;2.75;1.75;;;;;24.94;41.60;101158.34;5063878;28;45347;-63
2022/06/29 09:38:34;;;;;;;;;1.25;1.00;;;;;25.00;41.91;101170.28;5063888;28;45506;-64
2022/06/29 09:41:10;;;;;;;;;1.00;1.00;;;;;24.96;42.06;101159.03;5063128;28;46674;-64
2022/06/29 09:43:47;;;;;;;;;2.00;1.75;;;;;24.93;41.79;101155.84;5063579;28;45652;-64
2022/06/29 09:46:15;;;;;;;;;1.25;1.00;;;;;24.96;41.35;101161.72;5063578;28;45433;-63
2022/06/29 09:48:44;;;;;;;;;4.00;1.00;;;;;25.01;41.47;101164.72;5063539;28;45474;-63
2022/06/29 09:54:06;;;;;;;;;1.00;1.00;;;;;25.02;41.19;101165.56;5063057;28;45373;-63
2022/06/29 09:56:34;;;;;;;;;1.00;1.00;;;;;25.03;41.70;101151.09;5063847;28;45269;-64
2022/06/29 09:59:04;;;;;;;;;2.00;1.50;;;;;25.07;41.77;101163.22;5063586;28;45241;-63
2022/06/29 10:04:16;;;;;;;;;2.00;1.25;;;;;25.18;41.22;101160.13;5062969;28;45379;-63
2022/06/29 10:06:43;;;;;;;;;2.75;1.00;;;;;25.27;41.38;101155.53;5063721;28;45406;-63
2022/06/29 10:09:08;;;;;;;;;3.00;1.50;;;;;25.33;41.54;101146.75;5067658;28;45464;-63
2022/06/29 10:14:43;;;;;;;;;1.75;1.00;;;;;25.41;41.37;101146.69;5056216;28;45445;-64
2022/06/29 10:17:24;;;;;;;;;2.25;1.00;;;;;25.48;41.29;101149.53;5063645;28;45353;-63
2022/06/29 10:20:13;;;;;;;;;1.75;1.75;;;;;25.52;40.93;101132.81;5063612;28;45208;-64
2022/06/29 10:22:41;;;;;;;;;3.50;1.50;;;;;25.58;41.21;101136.63;5062785;28;45568;-63
2022/06/29 10:25:12;;;;;;;;;1.00;1.00;;;;;25.67;41.21;101138.25;5061745;28;45519;-63
2022/06/29 10:27:41;;;;;;;;;2.75;1.25;;;;;25.77;41.00;101138.06;5063427;28;45258;-64
2022/06/29 10:30:37;;;;;;;;;1.00;1.00;;;;;25.87;40.93;101130.56;5063292;28;45457;-63
2022/06/29 10:33:33;;;;;;;;;2.25;1.00;;;;;25.95;40.92;101124.25;5056816;28;46242;-63
2022/06/29 10:36:05;;;;;;;;;1.50;1.00;;;;;26.01;41.12;101116.25;5063018;28;45224;-64
2022/06/29 10:38:55;;;;;;;;;1.25;1.00;;;;;26.09;40.79;101120.75;5063121;28;45390;-64
2022/06/29 10:44:07;;;;;;;;;1.00;1.00;;;;;26.16;43.20;101110.91;5062747;28;45367;-64
2022/06/29 10:46:56;;;;;;;;;2.00;1.00;;;;;26.17;45.04;101107.16;5062922;28;45315;-63
2022/06/29 10:49:23;;;;;;;;;3.25;1.25;;;;;26.17;47.05;101118.81;5062631;28;45450;-64
2022/06/29 10:51:49;;;;;;;;;2.00;1.50;;;;;26.18;44.83;101106.16;5063034;28;45410;-63
2022/06/29 10:54:26;;;;;;;;;1.50;1.50;;;;;26.16;43.12;101108.19;5061792;28;45340;-65
2022/06/29 10:56:53;;;;;;;;;1.00;1.00;;;;;26.25;41.78;101103.56;5062821;28;45232;-64
2022/06/29 10:59:38;;;;;;;;;2.75;1.50;;;;;26.33;40.93;101098.91;5063100;28;45350;-64
2022/06/29 11:02:11;;;;;;;;;1.25;1.25;;;;;26.37;40.05;101099.34;5062701;28;45322;-63
2022/06/29 11:04:39;;;;;;;;;1.50;1.50;;;;;26.37;39.18;101096.66;5062092;28;45336;-63
2022/06/29 11:12:51;;;;;;;;;2.00;2.00;;;;;26.49;38.41;101103.31;5062560;28;45327;-63
2022/06/29 11:15:40;;;;;;;;;2.00;2.00;;;;;26.60;38.46;101099.31;5062317;28;45227;-64
2022/06/29 11:18:07;;;;;;;;;2.50;1.50;;;;;26.66;37.56;101094.00;5062215;28;45384;-64
2022/06/29 11:20:34;;;;;;;;;0.00;0.00;;;;;26.69;37.46;101087.38;5062354;28;45259;-65
2022/06/29 11:23:00;;;;;;;;;2.00;2.00;;;;;26.73;36.96;101090.53;5062503;28;45439;-63
2022/06/29 11:25:34;;;;;;;;;2.50;1.50;;;;;26.74;36.58;101095.75;5062206;28;46120;-63
2022/06/29 11:28:05;;;;;;;;;2.00;1.75;;;;;26.73;36.11;101091.38;5062255;28;45347;-64
2022/06/29 11:30:31;;;;;;;;;3.00;2.00;;;;;26.67;36.03;101090.25;5061792;28;45472;-64
2022/06/29 11:32:58;;;;;;;;;1.50;1.00;;;;;26.68;35.69;101085.69;5061861;28;45489;-64
2022/06/29 11:35:26;;;;;;;;;0.00;0.00;;;;;26.69;35.50;101074.69;5061953;28;45272;-64
2022/06/29 11:37:54;;;;;;;;;1.25;1.25;;;;;26.72;35.44;101076.19;5060875;28;45376;-64
2022/06/29 11:40:35;;;;;;;;;0.75;0.75;;;;;26.71;35.34;101078.06;5061891;28;45300;-63
2022/06/29 11:43:12;;;;;;;;;1.75;1.75;;;;;26.70;35.47;101075.53;5062162;28;45414;-63
2022/06/29 11:45:58;;;;;;;;;3.25;1.75;;;;;26.74;35.41;101078.72;5061574;28;46262;-63
2022/06/29 11:48:30;;;;;;;;;1.00;1.00;;;;;26.84;35.40;101073.84;5061813;28;45731;-63
2022/06/29 11:51:01;;;;;;;;;1.00;1.00;;;;;26.86;35.49;101071.78;5060491;28;45296;-63
2022/06/29 11:53:53;;;;;;;;;2.75;1.75;;;;;26.82;35.42;101079.44;5061262;28;45328;-63
2022/06/29 11:56:23;;;;;;;;;0.25;0.25;;;;;26.85;35.29;101070.09;5061517;28;46142;-64
2022/06/29 11:58:51;;;;;;;;;2.00;1.00;;;;;26.92;34.72;101069.16;5060462;28;45364;-63